createdAt,value
2024-05-09T00:01:50.466Z,0
2024-05-09T00:02:50.447Z,0
2024-05-09T00:03:50.508Z,0
2024-05-09T00:04:50.525Z,0
2024-05-09T00:05:50.620Z,0
2024-05-09T00:06:50.477Z,0
2024-05-09T00:07:50.506Z,0
2024-05-09T00:08:50.495Z,0
2024-05-09T00:09:50.518Z,0
2024-05-09T00:10:50.609Z,0
2024-05-09T00:11:50.591Z,0
2024-05-09T00:12:50.536Z,0
2024-05-09T00:16:50.554Z,0
2024-05-09T00:17:50.712Z,0
2024-05-09T00:18:50.645Z,0
2024-05-09T00:19:50.631Z,0
2024-05-09T00:20:50.643Z,0
2024-05-09T00:21:50.621Z,0
2024-05-09T00:22:50.656Z,0
2024-05-09T00:23:50.649Z,0
2024-05-09T00:24:50.662Z,0
2024-05-09T00:25:50.714Z,0
2024-05-09T00:26:50.677Z,0
2024-05-09T00:27:50.672Z,0
2024-05-09T00:28:50.700Z,0
2024-05-09T00:29:50.678Z,0
2024-05-09T00:31:50.883Z,0
2024-05-09T00:32:50.867Z,0
2024-05-09T00:33:51.050Z,0
2024-05-09T00:34:50.761Z,0
2024-05-09T00:35:50.732Z,0
2024-05-09T00:36:50.763Z,0
2024-05-09T00:37:50.826Z,0
2024-05-09T00:38:50.832Z,0
2024-05-09T00:39:50.848Z,0
2024-05-09T00:40:50.869Z,0
2024-05-09T00:41:50.870Z,0
2024-05-09T00:42:50.867Z,0
2024-05-09T00:44:50.872Z,0
2024-05-09T00:45:50.880Z,0
2024-05-09T00:46:50.963Z,0
2024-05-09T00:47:51.262Z,0
2024-05-09T00:48:51.100Z,0
2024-05-09T00:49:51.005Z,0
2024-05-09T00:50:50.992Z,0
2024-05-09T00:51:50.883Z,0
2024-05-09T00:52:51.088Z,0
2024-05-09T00:53:50.904Z,0
2024-05-09T00:54:50.987Z,0
2024-05-09T00:55:51.034Z,0
2024-05-09T00:56:50.992Z,0
2024-05-09T00:57:50.967Z,0
2024-05-09T00:58:50.961Z,0
2024-05-09T00:59:50.948Z,0
2024-05-09T01:00:51.065Z,0
2024-05-09T01:01:51.074Z,0
2024-05-09T01:02:51.143Z,0
2024-05-09T01:03:51.439Z,0
2024-05-09T01:04:51.159Z,0
2024-05-09T01:05:52.288Z,0
2024-05-09T01:09:51.044Z,0
2024-05-09T01:10:51.180Z,0
2024-05-09T01:11:51.208Z,0
2024-05-09T01:12:51.060Z,0
2024-05-09T01:13:51.147Z,0
2024-05-09T01:14:51.086Z,0
2024-05-09T01:15:51.097Z,0
2024-05-09T01:16:51.162Z,0
2024-05-09T01:17:51.362Z,0
2024-05-09T01:18:51.439Z,0
2024-05-09T01:19:51.202Z,0
2024-05-09T01:20:51.178Z,0
2024-05-09T01:21:51.165Z,0
2024-05-09T01:22:51.184Z,0
2024-05-09T01:23:51.184Z,0
2024-05-09T01:24:51.184Z,0
2024-05-09T01:25:51.294Z,0
2024-05-09T01:26:51.196Z,0
2024-05-09T01:27:51.217Z,0
2024-05-09T01:28:51.304Z,0
2024-05-09T01:29:51.236Z,0
2024-05-09T01:30:51.263Z,0
2024-05-09T01:31:51.404Z,0
2024-05-09T01:32:51.544Z,0
2024-05-09T01:33:51.394Z,0
2024-05-09T01:34:51.316Z,0
2024-05-09T01:35:51.296Z,0
2024-05-09T01:36:51.306Z,0
2024-05-09T01:37:51.330Z,0
2024-05-09T01:40:51.351Z,0
2024-05-09T01:41:51.338Z,0
2024-05-09T01:42:51.366Z,0
2024-05-09T01:43:51.388Z,0
2024-05-09T01:44:51.365Z,0
2024-05-09T01:45:51.392Z,0
2024-05-09T01:46:51.477Z,0
2024-05-09T01:47:51.646Z,0
2024-05-09T01:48:51.537Z,0
2024-05-09T01:50:51.464Z,0
2024-05-09T01:51:51.432Z,0
2024-05-09T01:52:51.480Z,0
2024-05-09T01:53:51.448Z,0
2024-05-09T01:54:51.451Z,0
2024-05-09T01:55:51.538Z,0
2024-05-09T01:56:51.479Z,0
2024-05-09T01:57:51.503Z,0
2024-05-09T01:58:51.577Z,0
2024-05-09T01:59:51.526Z,0
2024-05-09T02:00:51.583Z,0
2024-05-09T02:01:56.826Z,0
2024-05-09T02:02:51.716Z,0
2024-05-09T02:03:51.783Z,0
2024-05-09T02:04:51.669Z,0
2024-05-09T02:05:51.625Z,0
2024-05-09T02:06:51.582Z,0
2024-05-09T02:07:51.627Z,0
2024-05-09T02:08:51.587Z,0
2024-05-09T02:09:51.616Z,0
2024-05-09T02:10:51.753Z,0
2024-05-09T02:11:51.730Z,0
2024-05-09T02:12:51.630Z,0
2024-05-09T02:13:51.666Z,0
2024-05-09T02:14:51.663Z,0
2024-05-09T02:15:51.653Z,0
2024-05-09T02:16:51.689Z,0
2024-05-09T02:17:51.926Z,0
2024-05-09T02:18:51.765Z,0
2024-05-09T02:19:51.702Z,0
2024-05-09T02:20:51.768Z,0
2024-05-09T02:21:51.713Z,0
2024-05-09T02:22:51.742Z,0
2024-05-09T02:23:51.726Z,0
2024-05-09T02:24:51.740Z,0
2024-05-09T02:25:51.790Z,0
2024-05-09T02:26:51.771Z,0
2024-05-09T02:27:51.780Z,0
2024-05-09T02:28:51.815Z,0
2024-05-09T02:29:51.799Z,0
2024-05-09T02:30:51.812Z,0
2024-05-09T02:31:51.923Z,0
2024-05-09T02:32:51.925Z,0
2024-05-09T02:33:52.064Z,0
2024-05-09T02:34:51.877Z,0
2024-05-09T02:35:51.853Z,0
2024-05-09T02:36:51.853Z,0
2024-05-09T02:37:51.874Z,0
2024-05-09T02:38:51.931Z,0
2024-05-09T02:39:51.901Z,0
2024-05-09T02:40:51.954Z,0
2024-05-09T02:41:51.914Z,0
2024-05-09T02:42:51.943Z,0
2024-05-09T02:43:52.014Z,0
2024-05-09T02:44:52.014Z,0
2024-05-09T02:45:51.956Z,0
2024-05-09T02:46:52.062Z,0
2024-05-09T02:47:52.032Z,0
2024-05-09T02:48:52.092Z,0
2024-05-09T02:49:52.054Z,0
2024-05-09T02:50:52.160Z,0
2024-05-09T02:51:52.000Z,0
2024-05-09T02:52:52.067Z,0
2024-05-09T02:56:52.043Z,0
2024-05-09T02:57:52.070Z,0
2024-05-09T02:58:52.085Z,0
2024-05-09T02:59:52.070Z,0
2024-05-09T03:00:52.176Z,0
2024-05-09T03:01:52.199Z,0
2024-05-09T03:02:52.242Z,0
2024-05-09T03:03:52.336Z,0
2024-05-09T03:04:52.228Z,0
2024-05-09T03:05:52.138Z,0
2024-05-09T03:06:52.132Z,0
2024-05-09T03:07:52.149Z,0
2024-05-09T03:08:52.142Z,0
2024-05-09T03:09:52.158Z,0
2024-05-09T03:10:52.240Z,0
2024-05-09T03:11:52.327Z,0
2024-05-09T03:12:52.172Z,0
2024-05-09T03:13:52.247Z,0
2024-05-09T03:14:52.189Z,0
2024-05-09T03:15:52.194Z,0
2024-05-09T03:16:52.273Z,0
2024-05-09T03:17:52.450Z,0
2024-05-09T03:18:52.313Z,0
2024-05-09T03:19:52.295Z,0
2024-05-09T03:20:52.366Z,0
2024-05-09T03:21:52.267Z,0
2024-05-09T03:22:55.598Z,0
2024-05-09T03:23:52.299Z,0
2024-05-09T03:24:52.318Z,0
2024-05-09T03:25:52.302Z,0
2024-05-09T03:26:52.365Z,0
2024-05-09T03:27:52.303Z,0
2024-05-09T03:28:52.321Z,0
2024-05-09T03:29:52.312Z,0
2024-05-09T03:30:52.326Z,0
2024-05-09T03:31:52.430Z,0
2024-05-09T03:32:52.479Z,0
2024-05-09T03:33:52.504Z,0
2024-05-09T03:34:52.407Z,0
2024-05-09T03:35:52.381Z,0
2024-05-09T03:36:52.444Z,0
2024-05-09T03:42:52.422Z,0
2024-05-09T03:43:52.476Z,0
2024-05-09T03:44:52.441Z,0
2024-05-09T03:45:52.455Z,0
2024-05-09T03:46:52.473Z,0
2024-05-09T03:48:52.586Z,0
2024-05-09T03:49:52.528Z,0
2024-05-09T03:50:52.627Z,0
2024-05-09T03:51:52.519Z,0
2024-05-09T03:56:52.536Z,0
2024-05-09T03:57:52.553Z,0
2024-05-09T03:58:52.625Z,0
2024-05-09T03:59:52.578Z,0
2024-05-09T04:00:52.638Z,0
2024-05-09T04:06:52.636Z,0
2024-05-09T04:07:52.675Z,0
2024-05-09T04:08:52.637Z,0
2024-05-09T04:09:52.645Z,0
2024-05-09T04:10:52.697Z,0
2024-05-09T04:11:52.904Z,0
2024-05-09T04:12:52.747Z,0
2024-05-09T04:13:52.777Z,0
2024-05-09T04:14:52.713Z,0
2024-05-09T04:15:52.723Z,0
2024-05-09T04:16:52.794Z,0
2024-05-09T04:17:52.886Z,0
2024-05-09T04:18:52.984Z,0
2024-05-09T04:19:52.823Z,0
2024-05-09T04:22:52.792Z,0
2024-05-09T04:23:52.787Z,0
2024-05-09T04:24:52.800Z,0
2024-05-09T04:25:52.879Z,0
2024-05-09T04:26:52.826Z,0
2024-05-09T04:27:52.826Z,0
2024-05-09T04:28:52.870Z,0
2024-05-09T04:29:52.849Z,0
2024-05-09T04:30:52.870Z,0
2024-05-09T04:31:52.905Z,0
2024-05-09T04:32:53.038Z,0
2024-05-09T04:33:53.090Z,0
2024-05-09T04:34:52.914Z,0
2024-05-09T04:35:52.901Z,0
2024-05-09T04:36:52.898Z,0
2024-05-09T04:37:52.935Z,0
2024-05-09T04:38:52.924Z,0
2024-05-09T04:39:52.924Z,0
2024-05-09T04:40:53.039Z,0
2024-05-09T04:41:52.948Z,0
2024-05-09T04:42:52.956Z,0
2024-05-09T04:43:53.004Z,0
2024-05-09T04:44:55.584Z,0
2024-05-09T04:45:52.988Z,0
2024-05-09T04:46:53.023Z,0
2024-05-09T04:47:53.289Z,0
2024-05-09T04:48:53.182Z,0
2024-05-09T04:49:53.084Z,0
2024-05-09T04:50:53.059Z,0
2024-05-09T04:51:53.028Z,0
2024-05-09T04:52:53.106Z,0
2024-05-09T04:53:53.113Z,0
2024-05-09T04:54:54.682Z,0
2024-05-09T04:55:53.145Z,0
2024-05-09T04:56:53.094Z,0
2024-05-09T04:59:53.119Z,0
2024-05-09T05:00:53.234Z,0
2024-05-09T05:01:53.263Z,0
2024-05-09T05:02:53.342Z,0
2024-05-09T05:03:54.859Z,0
2024-05-09T05:04:53.311Z,0
2024-05-09T05:05:53.181Z,0
2024-05-09T05:06:53.173Z,0
2024-05-09T05:07:53.268Z,0
2024-05-09T05:08:53.195Z,0
2024-05-09T05:09:53.202Z,0
2024-05-09T05:10:53.384Z,0
2024-05-09T05:11:53.306Z,0
2024-05-09T05:12:53.236Z,0
2024-05-09T05:13:53.279Z,0
2024-05-09T05:14:53.242Z,0
2024-05-09T05:15:53.731Z,0
2024-05-09T05:16:53.303Z,0
2024-05-09T05:17:53.430Z,0
2024-05-09T05:18:53.405Z,0
2024-05-09T05:19:53.443Z,0
2024-05-09T05:20:53.286Z,0
2024-05-09T05:21:53.296Z,0
2024-05-09T05:22:53.358Z,0
2024-05-09T05:23:53.320Z,0
2024-05-09T05:24:53.347Z,0
2024-05-09T05:25:54.129Z,0
2024-05-09T05:26:53.350Z,0
2024-05-09T05:27:53.358Z,0
2024-05-09T05:28:53.392Z,0
2024-05-09T05:29:53.377Z,0
2024-05-09T05:30:53.382Z,0
2024-05-09T05:31:53.549Z,0
2024-05-09T05:32:53.564Z,0
2024-05-09T05:35:53.412Z,0
2024-05-09T05:36:53.434Z,0
2024-05-09T05:37:53.471Z,0
2024-05-09T05:38:53.519Z,0
2024-05-09T05:41:53.487Z,0
2024-05-09T05:42:53.481Z,0
2024-05-09T05:43:53.557Z,0
2024-05-09T05:45:53.520Z,0
2024-05-09T05:46:53.542Z,0
2024-05-09T05:47:53.719Z,0
2024-05-09T05:48:53.637Z,0
2024-05-09T05:49:53.552Z,0
2024-05-09T05:50:53.618Z,0
2024-05-09T05:51:53.551Z,0
2024-05-09T05:52:53.616Z,0
2024-05-09T05:53:53.569Z,0
2024-05-09T05:54:53.578Z,0
2024-05-09T05:55:53.721Z,0
2024-05-09T05:56:53.608Z,0
2024-05-09T05:57:53.585Z,0
2024-05-09T05:58:53.614Z,0
2024-05-09T06:03:53.706Z,0
2024-05-09T06:04:53.713Z,0
2024-05-09T06:05:53.757Z,0.857143
2024-05-09T06:06:53.689Z,0
2024-05-09T06:12:53.722Z,0.857143
2024-05-09T06:13:53.744Z,0.857143
2024-05-09T06:14:53.737Z,0.857143
2024-05-09T06:15:53.756Z,1.71429
2024-05-09T06:16:56.922Z,1.71429
2024-05-09T06:17:53.857Z,1.71429
2024-05-09T06:18:53.988Z,1.71429
2024-05-09T06:19:54.037Z,4.21429
2024-05-09T06:20:53.839Z,6.71429
2024-05-09T06:26:53.859Z,1.71429
2024-05-09T06:27:53.863Z,1.71429
2024-05-09T06:28:53.906Z,2.5
2024-05-09T06:29:53.895Z,5.85714
2024-05-09T06:30:53.909Z,8.35714
2024-05-09T06:31:55.400Z,9.21429
2024-05-09T06:32:54.011Z,8.35714
2024-05-09T06:33:54.136Z,9.21429
2024-05-09T06:34:53.953Z,10
2024-05-09T06:35:53.952Z,10
2024-05-09T06:36:53.956Z,9.21429
2024-05-09T06:39:53.999Z,9.21429
2024-05-09T06:40:53.980Z,8.35714
2024-05-09T06:41:53.990Z,8.35714
2024-05-09T06:42:54.007Z,8.35714
2024-05-09T06:43:54.023Z,8.35714
2024-05-09T06:44:54.019Z,7.5
2024-05-09T06:45:54.039Z,7.5
2024-05-09T06:46:55.826Z,7.5
2024-05-09T06:47:54.225Z,7.5
2024-05-09T06:48:54.345Z,7.5
2024-05-09T06:49:54.103Z,6.71429
2024-05-09T06:50:54.113Z,6.71429
2024-05-09T06:51:54.092Z,7.5
2024-05-09T06:52:54.127Z,7.5
2024-05-09T06:53:54.109Z,8.35714
2024-05-09T06:54:54.095Z,9.21429
2024-05-09T06:55:54.248Z,10
2024-05-09T06:56:54.122Z,9.21429
2024-05-09T06:57:54.140Z,10
2024-05-09T06:58:54.160Z,10
2024-05-09T06:59:54.146Z,10
2024-05-09T07:00:54.218Z,9.21429
2024-05-09T07:01:54.212Z,9.21429
2024-05-09T07:03:54.256Z,8.35714
2024-05-09T07:04:54.486Z,9.21429
2024-05-09T07:09:54.219Z,11.7143
2024-05-09T07:10:54.278Z,11.7143
2024-05-09T07:11:54.313Z,11.7143
2024-05-09T07:12:54.259Z,10.8571
2024-05-09T07:13:54.328Z,11.7143
2024-05-09T07:14:54.276Z,12.5
2024-05-09T07:15:54.286Z,12.5
2024-05-09T07:16:54.440Z,11.7143
2024-05-09T07:17:54.476Z,12.5
2024-05-09T07:20:54.333Z,10.8571
2024-05-09T07:21:54.326Z,10.8571
2024-05-09T07:22:54.414Z,10
2024-05-09T07:23:54.457Z,10.8571
2024-05-09T07:24:54.438Z,12.5
2024-05-09T07:25:54.525Z,12.5
2024-05-09T07:26:54.389Z,12.5
2024-05-09T07:27:54.380Z,13.3571
2024-05-09T07:28:54.416Z,13.3571
2024-05-09T07:29:54.409Z,13.3571
2024-05-09T07:30:54.405Z,13.3571
2024-05-09T07:31:54.464Z,13.3571
2024-05-09T07:34:54.454Z,10
2024-05-09T07:35:54.430Z,10
2024-05-09T07:36:54.442Z,10.8571
2024-05-09T07:37:54.580Z,10
2024-05-09T07:38:54.471Z,10
2024-05-09T07:39:54.472Z,10
2024-05-09T07:40:54.535Z,10
2024-05-09T07:41:54.482Z,10.8571
2024-05-09T07:42:54.489Z,10.8571
2024-05-09T07:43:54.549Z,10.8571
2024-05-09T07:44:55.548Z,11.7143
2024-05-09T07:45:56.465Z,12.5
2024-05-09T07:48:13.781Z,12.5
2024-05-09T07:49:43.996Z,13.3571
2024-05-09T07:50:35.294Z,13.3571
2024-05-09T07:52:38.330Z,15
2024-05-09T07:53:21.702Z,15
2024-05-09T07:55:55.195Z,13.3571
2024-05-09T07:57:54.651Z,12.5
2024-05-09T07:58:54.793Z,12.5
2024-05-09T07:59:54.608Z,13.3571
2024-05-09T08:00:54.810Z,13.3571
2024-05-09T08:01:54.824Z,13.3571
2024-05-09T08:02:54.695Z,13.3571
2024-05-09T08:04:54.773Z,13.3571
2024-05-09T08:05:54.778Z,12.5
2024-05-09T08:06:54.721Z,11.7143
2024-05-09T08:07:54.681Z,11.7143
2024-05-09T08:08:54.702Z,11.7143
2024-05-09T08:09:54.725Z,12.5
2024-05-09T08:10:54.738Z,11.7143
2024-05-09T08:11:54.772Z,9.21429
2024-05-09T08:14:54.773Z,1.71429
2024-05-09T08:15:54.754Z,0.857143
2024-05-09T08:16:54.828Z,0.857143
2024-05-09T08:17:54.887Z,0
2024-05-09T08:18:54.892Z,0
2024-05-09T08:19:54.771Z,0
2024-05-09T08:20:54.795Z,0
2024-05-09T08:21:54.794Z,0
2024-05-09T08:22:54.798Z,0
2024-05-09T08:23:54.815Z,0
2024-05-09T08:24:54.826Z,0
2024-05-09T08:25:54.815Z,0
2024-05-09T08:26:54.820Z,0
2024-05-09T08:27:54.866Z,0
2024-05-09T08:28:54.846Z,0
2024-05-09T08:29:54.861Z,0
2024-05-09T08:30:54.987Z,0
2024-05-09T08:31:54.894Z,0
2024-05-09T08:36:55.195Z,0
2024-05-09T08:37:54.951Z,0
2024-05-09T08:38:54.930Z,0
2024-05-09T08:39:54.976Z,0
2024-05-09T08:40:54.982Z,0
2024-05-09T08:41:54.939Z,0
2024-05-09T08:42:55.023Z,0
2024-05-09T08:43:54.975Z,0
2024-05-09T08:45:55.002Z,0
2024-05-09T08:46:54.979Z,0
2024-05-09T08:49:55.032Z,0
2024-05-09T08:50:55.039Z,0
2024-05-09T08:51:55.044Z,0
2024-05-09T08:52:55.021Z,0
2024-05-09T08:53:55.028Z,0
2024-05-09T08:54:55.081Z,0
2024-05-09T08:55:55.057Z,0
2024-05-09T08:56:55.062Z,0
2024-05-09T08:57:55.197Z,0
2024-05-09T08:58:55.072Z,0
2024-05-09T08:59:55.084Z,0
2024-05-09T09:00:55.191Z,0
2024-05-09T09:01:55.160Z,0
2024-05-09T09:02:55.140Z,0
2024-05-09T09:03:55.315Z,0
2024-05-09T09:04:55.231Z,0
2024-05-09T09:10:55.266Z,0
2024-05-09T09:11:55.264Z,0
2024-05-09T09:12:55.247Z,0
2024-05-09T09:13:55.194Z,0
2024-05-09T09:14:55.198Z,0
2024-05-09T09:15:55.241Z,0
2024-05-09T09:16:55.207Z,0
2024-05-09T09:17:55.393Z,0
2024-05-09T09:18:55.487Z,0
2024-05-09T09:19:55.419Z,0
2024-05-09T09:20:55.352Z,0
2024-05-09T09:21:55.317Z,0
2024-05-09T09:22:55.261Z,0
2024-05-09T09:23:55.279Z,0
2024-05-09T09:24:55.391Z,0
2024-05-09T09:25:55.300Z,0
2024-05-09T09:26:55.285Z,0
2024-05-09T09:27:55.344Z,0
2024-05-09T09:28:55.308Z,0
2024-05-09T09:29:55.308Z,0
2024-05-09T09:30:55.348Z,0
2024-05-09T09:31:55.317Z,0
2024-05-09T09:32:55.407Z,0
2024-05-09T09:33:55.547Z,0
2024-05-09T09:34:55.390Z,0
2024-05-09T09:35:55.381Z,0
2024-05-09T09:36:55.421Z,0
2024-05-09T09:37:55.382Z,0
2024-05-09T09:38:55.387Z,0
2024-05-09T09:39:55.443Z,0
2024-05-09T09:40:55.439Z,0
2024-05-09T09:41:55.425Z,0
2024-05-09T09:42:55.487Z,0
2024-05-09T09:43:55.419Z,0
2024-05-09T09:45:03.884Z,0
2024-05-09T09:45:55.580Z,0
2024-05-09T09:46:55.512Z,0
2024-05-09T09:47:55.542Z,0
2024-05-09T09:48:55.641Z,0
2024-05-09T09:49:55.494Z,0
2024-05-09T09:50:55.565Z,0
2024-05-09T09:51:55.535Z,0
2024-05-09T09:52:55.524Z,0
2024-05-09T09:53:55.527Z,0
2024-05-09T09:54:55.550Z,0
2024-05-09T09:55:55.555Z,0
2024-05-09T09:56:55.554Z,0
2024-05-09T09:57:55.745Z,0
2024-05-09T09:58:55.564Z,0
2024-05-09T09:59:55.592Z,0
2024-05-09T10:00:55.761Z,0
2024-05-09T10:01:55.712Z,0
2024-05-09T10:02:55.654Z,0
2024-05-09T10:03:55.800Z,0
2024-05-09T10:04:55.785Z,0
2024-05-09T10:05:55.850Z,0
2024-05-09T10:06:55.694Z,0
2024-05-09T10:07:55.675Z,0
2024-05-09T10:08:55.677Z,0
2024-05-09T10:09:55.741Z,0
2024-05-09T10:10:55.810Z,0
2024-05-09T10:12:00.181Z,0
2024-05-09T10:12:55.725Z,0
2024-05-09T10:13:55.727Z,0
2024-05-09T10:14:55.735Z,0
2024-05-09T10:15:55.774Z,0
2024-05-09T10:16:55.759Z,0
2024-05-09T10:17:55.868Z,0
2024-05-09T10:18:55.981Z,0
2024-05-09T10:19:55.882Z,0
2024-05-09T10:20:55.815Z,0
2024-05-09T10:25:55.841Z,0
2024-05-09T10:26:55.852Z,0
2024-05-09T10:27:55.981Z,0
2024-05-09T10:28:55.881Z,0
2024-05-09T10:29:55.887Z,0
2024-05-09T10:30:55.909Z,0
2024-05-09T10:31:55.919Z,0
2024-05-09T10:32:56.077Z,0
2024-05-09T10:33:56.284Z,0
2024-05-09T10:34:56.021Z,0
2024-05-09T10:35:55.954Z,0
2024-05-09T10:36:56.138Z,0
2024-05-09T10:37:55.966Z,0
2024-05-09T10:38:55.968Z,0
2024-05-09T10:39:56.036Z,0
2024-05-09T10:40:55.974Z,0
2024-05-09T10:41:55.986Z,0
2024-05-09T10:42:56.009Z,0
2024-05-09T10:43:56.010Z,0
2024-05-09T10:44:56.016Z,0
2024-05-09T10:45:56.079Z,0
2024-05-09T10:46:56.070Z,0
2024-05-09T10:47:56.190Z,0
2024-05-09T10:48:56.176Z,0
2024-05-09T10:49:56.167Z,0
2024-05-09T10:50:56.093Z,0
2024-05-09T10:51:56.154Z,0
2024-05-09T10:52:56.105Z,0
2024-05-09T10:53:56.111Z,0
2024-05-09T10:54:56.166Z,0
2024-05-09T10:55:56.137Z,0
2024-05-09T10:56:56.140Z,0
2024-05-09T10:57:56.185Z,0
2024-05-09T10:58:56.162Z,0
2024-05-09T10:59:56.160Z,0
2024-05-09T11:00:56.272Z,0
2024-05-09T11:01:56.275Z,0
2024-05-09T11:02:56.230Z,0
2024-05-09T11:03:56.349Z,0
2024-05-09T11:04:56.446Z,0
2024-05-09T11:05:56.303Z,0
2024-05-09T11:06:56.252Z,0
2024-05-09T11:07:56.245Z,0
2024-05-09T11:08:56.242Z,0
2024-05-09T11:09:56.302Z,0
2024-05-09T11:10:56.367Z,0
2024-05-09T11:11:56.362Z,0
2024-05-09T11:12:56.366Z,0
2024-05-09T11:13:56.294Z,0
2024-05-09T11:14:56.297Z,0
2024-05-09T11:15:56.385Z,0
2024-05-09T11:16:56.320Z,0
2024-05-09T11:17:56.537Z,0
2024-05-09T11:18:56.822Z,0
2024-05-09T11:19:56.483Z,0
2024-05-09T11:20:56.364Z,0
2024-05-09T11:21:56.426Z,0
2024-05-09T11:23:56.370Z,0
2024-05-09T11:24:56.448Z,0
2024-05-09T11:25:56.384Z,0
2024-05-09T11:26:56.392Z,0
2024-05-09T11:27:56.448Z,0
2024-05-09T11:28:56.437Z,0
2024-05-09T11:29:56.439Z,0
2024-05-09T11:30:56.488Z,0
2024-05-09T11:31:56.485Z,0
2024-05-09T11:32:56.668Z,0
2024-05-09T11:33:56.602Z,0
2024-05-09T11:34:56.479Z,0
2024-05-09T11:35:56.497Z,0
2024-05-09T11:36:56.518Z,0
2024-05-09T11:37:56.508Z,0
2024-05-09T11:48:56.750Z,0
2024-05-09T11:49:56.761Z,0
2024-05-09T11:50:56.661Z,0
2024-05-09T11:51:56.672Z,0
2024-05-09T11:52:56.645Z,0
2024-05-09T11:53:56.639Z,0
2024-05-09T11:54:56.676Z,0
2024-05-09T11:55:56.667Z,0
2024-05-09T11:56:56.690Z,0
2024-05-09T11:57:56.778Z,0
2024-05-09T11:58:56.698Z,0
2024-05-09T11:59:56.700Z,0
2024-05-09T12:00:56.821Z,0
2024-05-09T12:01:56.800Z,0
2024-05-09T12:02:56.787Z,0
2024-05-09T12:03:57.019Z,0
2024-05-09T12:04:56.806Z,0
2024-05-09T12:05:57.015Z,0
2024-05-09T12:06:56.815Z,0
2024-05-09T12:07:56.755Z,0
2024-05-09T12:08:56.773Z,0
2024-05-09T12:09:56.833Z,0
2024-05-09T12:10:57.290Z,0
2024-05-09T12:11:56.839Z,0
2024-05-09T12:12:56.879Z,0
2024-05-09T12:13:56.847Z,0
2024-05-09T12:14:56.834Z,0
2024-05-09T12:15:56.885Z,0
2024-05-09T12:16:56.859Z,0
2024-05-09T12:17:59.094Z,0
2024-05-09T12:18:57.000Z,0
2024-05-09T12:19:56.871Z,0
2024-05-09T12:20:56.853Z,0
2024-05-09T12:21:56.927Z,0
2024-05-09T12:22:56.880Z,0
2024-05-09T12:23:56.908Z,0
2024-05-09T12:24:56.948Z,0
2024-05-09T12:29:56.965Z,0
2024-05-09T12:30:57.008Z,0
2024-05-09T12:33:57.086Z,0
2024-05-09T12:34:56.996Z,0
2024-05-09T12:35:56.986Z,0
2024-05-09T12:36:57.082Z,0
2024-05-09T12:37:57.032Z,0
2024-05-09T12:38:57.045Z,0
2024-05-09T12:39:57.100Z,0
2024-05-09T12:40:57.090Z,0
2024-05-09T12:41:57.058Z,0
2024-05-09T12:42:57.074Z,0
2024-05-09T12:43:57.063Z,0
2024-05-09T12:44:57.077Z,0
2024-05-09T12:47:57.252Z,0
2024-05-09T12:48:57.233Z,0
2024-05-09T12:49:57.160Z,0
2024-05-09T12:50:57.162Z,0
2024-05-09T12:51:57.229Z,0
2024-05-09T12:52:57.156Z,0
2024-05-09T12:53:57.163Z,0
2024-05-09T12:54:57.189Z,0
2024-05-09T12:56:01.804Z,0
2024-05-09T12:56:57.183Z,0
2024-05-09T12:57:57.328Z,0
2024-05-09T12:58:57.192Z,0
2024-05-09T12:59:57.207Z,0
2024-05-09T13:00:57.358Z,0
2024-05-09T13:01:59.548Z,0
2024-05-09T13:02:57.342Z,0
2024-05-09T13:03:57.401Z,0
2024-05-09T13:04:57.370Z,0
2024-05-09T13:05:57.275Z,0
2024-05-09T13:06:57.301Z,0
2024-05-09T13:07:57.469Z,0
2024-05-09T13:08:57.303Z,0
2024-05-09T13:09:57.376Z,0
2024-05-09T13:10:57.370Z,0
2024-05-09T13:11:57.354Z,0
2024-05-09T13:12:57.330Z,0
2024-05-09T13:13:57.327Z,0
2024-05-09T13:14:57.338Z,0
2024-05-09T13:15:57.436Z,0
2024-05-09T13:16:57.384Z,0
2024-05-09T13:18:00.501Z,0
2024-05-09T13:18:57.438Z,0
2024-05-09T13:19:57.411Z,0
2024-05-09T13:20:57.434Z,0
2024-05-09T13:21:57.487Z,0
2024-05-09T13:22:57.427Z,0
2024-05-09T13:23:59.245Z,0
2024-05-09T13:27:57.629Z,0
2024-05-09T13:28:57.462Z,0
2024-05-09T13:29:57.479Z,0
2024-05-09T13:30:57.533Z,0
2024-05-09T13:31:57.507Z,0
2024-05-09T13:32:57.579Z,0
2024-05-09T13:33:57.650Z,0
2024-05-09T13:34:57.547Z,0
2024-05-09T13:35:57.639Z,0
2024-05-09T13:36:57.574Z,0
2024-05-09T13:37:57.568Z,0
2024-05-09T13:38:57.580Z,0
2024-05-09T13:39:57.622Z,0
2024-05-09T13:40:57.630Z,0
2024-05-09T13:41:57.662Z,0
2024-05-09T13:42:57.633Z,0
2024-05-09T13:43:57.610Z,0
2024-05-09T13:44:57.608Z,0
2024-05-09T13:45:57.785Z,0
2024-05-09T13:46:57.675Z,0
2024-05-09T13:47:57.818Z,0
2024-05-09T13:48:57.771Z,0
2024-05-09T13:49:57.666Z,0
2024-05-09T13:50:57.658Z,0
2024-05-09T13:51:57.703Z,0
2024-05-09T13:52:57.679Z,0
2024-05-09T13:53:57.675Z,0
2024-05-09T13:54:57.712Z,0
2024-05-09T13:55:57.697Z,0
2024-05-09T13:56:57.710Z,0
2024-05-09T13:57:57.759Z,0
2024-05-09T13:58:57.727Z,0
2024-05-09T13:59:57.740Z,0
2024-05-09T14:00:57.881Z,0
2024-05-09T14:01:57.839Z,0
2024-05-09T14:02:57.803Z,0
2024-05-09T14:03:57.918Z,0
2024-05-09T14:04:57.995Z,0
2024-05-09T14:05:57.970Z,0
2024-05-09T14:06:57.850Z,0
2024-05-09T14:07:57.790Z,0
2024-05-09T14:08:57.802Z,0
2024-05-09T14:09:57.849Z,0
2024-05-09T14:10:57.875Z,0
2024-05-09T14:11:57.906Z,0
2024-05-09T14:12:57.933Z,0
2024-05-09T14:13:57.866Z,0
2024-05-09T14:14:57.875Z,0
2024-05-09T14:15:58.075Z,0
2024-05-09T14:16:57.975Z,0
2024-05-09T14:17:57.933Z,0
2024-05-09T14:18:57.931Z,0
2024-05-09T14:19:57.920Z,0
2024-05-09T14:20:57.924Z,0
2024-05-09T14:21:58.043Z,0
2024-05-09T14:22:57.970Z,0
2024-05-09T14:23:57.958Z,0
2024-05-09T14:24:58.022Z,0
2024-05-09T14:25:57.968Z,0
2024-05-09T14:26:57.984Z,0
2024-05-09T14:27:58.244Z,0
2024-05-09T14:28:57.988Z,0
2024-05-09T14:29:58.001Z,0
2024-05-09T14:30:58.021Z,0
2024-05-09T14:31:58.037Z,0
2024-05-09T14:32:58.112Z,0
2024-05-09T14:33:58.280Z,0
2024-05-09T14:34:58.062Z,0
2024-05-09T14:35:58.049Z,0
2024-05-09T14:36:58.086Z,0
2024-05-09T14:37:58.059Z,0
2024-05-09T14:38:58.087Z,0
2024-05-09T14:39:58.107Z,0
2024-05-09T14:40:58.217Z,0
2024-05-09T14:41:58.103Z,0
2024-05-09T14:43:01.052Z,0
2024-05-09T14:43:58.116Z,0
2024-05-09T14:44:58.135Z,0
2024-05-09T14:45:58.191Z,0
2024-05-09T14:46:58.183Z,0
2024-05-09T14:47:58.225Z,0
2024-05-09T14:48:58.232Z,0
2024-05-09T14:49:58.163Z,0
2024-05-09T14:50:58.181Z,0
2024-05-09T14:51:58.401Z,0
2024-05-09T14:52:58.203Z,0
2024-05-09T14:53:58.215Z,0
2024-05-09T14:55:00.605Z,0
2024-05-09T15:00:58.436Z,0
2024-05-09T15:01:58.412Z,0
2024-05-09T15:02:58.307Z,0
2024-05-09T15:03:58.527Z,0
2024-05-09T15:04:58.431Z,0
2024-05-09T15:05:58.347Z,0
2024-05-09T15:11:58.367Z,0
2024-05-09T15:12:58.430Z,0
2024-05-09T15:13:58.376Z,0
2024-05-09T15:14:58.382Z,0
2024-05-09T15:15:58.432Z,0
2024-05-09T15:16:58.402Z,0
2024-05-09T15:17:58.525Z,0
2024-05-09T15:19:58.520Z,0
2024-05-09T15:20:58.617Z,0
2024-05-09T15:21:58.545Z,0
2024-05-09T15:22:58.481Z,0
2024-05-09T15:23:58.483Z,0
2024-05-09T15:24:58.554Z,0
2024-05-09T15:25:58.487Z,0
2024-05-09T15:26:58.492Z,0
2024-05-09T15:27:58.618Z,0
2024-05-09T15:28:58.495Z,0
2024-05-09T15:29:58.511Z,0
2024-05-09T15:30:58.547Z,0
2024-05-09T15:31:58.553Z,0
2024-05-09T15:32:58.584Z,0
2024-05-09T15:33:58.632Z,0
2024-05-09T15:34:58.577Z,0
2024-05-09T15:35:58.589Z,0
2024-05-09T15:36:58.630Z,0
2024-05-09T15:37:58.626Z,0
2024-05-09T15:38:58.637Z,0
2024-05-09T15:39:58.654Z,0
2024-05-09T15:40:58.640Z,0
2024-05-09T15:41:58.620Z,0
2024-05-09T15:42:58.656Z,0
2024-05-09T15:43:58.647Z,0
2024-05-09T15:44:58.662Z,0
2024-05-09T15:45:58.734Z,0
2024-05-09T15:46:58.694Z,0
2024-05-09T15:47:59.002Z,0
2024-05-09T15:48:59.009Z,0
2024-05-09T15:49:58.843Z,0
2024-05-09T15:51:58.775Z,0
2024-05-09T15:52:58.756Z,0
2024-05-09T15:53:58.752Z,0
2024-05-09T15:54:58.782Z,0
2024-05-09T15:57:58.807Z,0
2024-05-09T15:58:58.802Z,0
2024-05-09T15:59:58.809Z,0
2024-05-09T16:00:58.871Z,0
2024-05-09T16:01:58.891Z,0
2024-05-09T16:02:58.843Z,0
2024-05-09T16:03:59.113Z,0
2024-05-09T16:04:59.019Z,0
2024-05-09T16:05:58.901Z,0
2024-05-09T16:06:58.983Z,0
2024-05-09T16:07:58.913Z,0
2024-05-09T16:08:58.913Z,0
2024-05-09T16:12:59.046Z,0
2024-05-09T16:13:58.935Z,0
2024-05-09T16:14:58.940Z,0
2024-05-09T16:15:59.060Z,0
2024-05-09T16:16:59.093Z,0
2024-05-09T16:17:59.042Z,0
2024-05-09T16:18:59.044Z,0
2024-05-09T16:19:58.987Z,0
2024-05-09T16:20:59.017Z,0
2024-05-09T16:21:59.071Z,0
2024-05-09T16:22:59.003Z,0
2024-05-09T16:23:59.029Z,0
2024-05-09T16:24:59.062Z,0
2024-05-09T16:32:59.176Z,0
2024-05-09T16:33:59.293Z,0
2024-05-09T16:34:59.141Z,0
2024-05-09T16:35:59.134Z,0
2024-05-09T16:36:59.180Z,0
2024-05-09T16:37:59.142Z,0
2024-05-09T16:38:59.148Z,0
2024-05-09T16:39:59.230Z,0
2024-05-09T16:40:59.215Z,0
2024-05-09T16:41:59.198Z,0
2024-05-09T16:44:59.207Z,0
2024-05-09T16:45:59.290Z,0